createdAt,value
2018-06-19T00:02:10.470Z,100418.82
2018-06-19T00:04:39.146Z,100412.30
2018-06-19T00:07:07.713Z,100416.45
2018-06-19T00:09:36.429Z,100415.75
2018-06-19T00:12:05.077Z,100414.14
2018-06-19T00:14:33.720Z,100414.27
2018-06-19T00:17:02.336Z,100412.17
2018-06-19T00:19:31.701Z,100411.41
2018-06-19T00:22:02.005Z,100412.42
2018-06-19T00:24:30.586Z,100411.70
2018-06-19T00:26:59.149Z,100408.25
2018-06-19T00:29:27.786Z,100406.72
2018-06-19T00:31:56.330Z,100405.91
2018-06-19T00:34:24.911Z,100408.66
2018-06-19T00:36:53.463Z,100412.80
2018-06-19T00:39:22.101Z,100410.71
2018-06-19T00:41:50.761Z,100408.58
2018-06-19T00:44:19.371Z,100409.55
2018-06-19T00:46:50.358Z,100405.23
2018-06-19T00:49:18.990Z,100414.56
2018-06-19T00:51:47.679Z,100417.78
2018-06-19T00:54:16.369Z,100421.77
2018-06-19T00:56:53.618Z,100418.30
2018-06-19T00:59:22.152Z,100417.09
2018-06-19T01:01:51.401Z,100419.83
2018-06-19T01:04:20.032Z,100425.20
2018-06-19T01:06:49.371Z,100429.23
2018-06-19T01:09:18.459Z,100418.20
2018-06-19T01:11:47.075Z,100420.54
2018-06-19T01:14:15.689Z,100428.98
2018-06-19T01:16:44.158Z,100422.50
2018-06-19T01:19:12.843Z,100424.27
2018-06-19T01:21:41.544Z,100430.09
2018-06-19T01:24:10.274Z,100422.17
2018-06-19T01:26:39.175Z,100418.70
2018-06-19T01:29:07.926Z,100417.02
2018-06-19T01:31:36.456Z,100413.14
2018-06-19T01:34:05.081Z,100413.19
2018-06-19T01:36:33.728Z,100420.33
2018-06-19T01:39:02.467Z,100430.54
2018-06-19T01:41:31.254Z,100429.77
2018-06-19T01:43:59.844Z,100432.02
2018-06-19T01:46:28.375Z,100429.43
2018-06-19T01:48:57.176Z,100421.47
2018-06-19T01:51:25.994Z,100423.69
2018-06-19T01:53:54.580Z,100424.61
2018-06-19T01:56:23.312Z,100423.76
2018-06-19T01:58:51.981Z,100420.22
2018-06-19T02:01:20.644Z,100421.16
2018-06-19T02:03:49.266Z,100425.61
2018-06-19T02:06:18.230Z,100428.30
2018-06-19T02:08:46.806Z,100424.39
2018-06-19T02:11:15.404Z,100426.16
2018-06-19T02:13:43.971Z,100428.92
2018-06-19T02:16:12.504Z,100430.39
2018-06-19T02:18:41.031Z,100433.52
2018-06-19T02:21:09.607Z,100424.75
2018-06-19T02:23:38.210Z,100430.16
2018-06-19T02:26:07.021Z,100433.33
2018-06-19T02:28:35.669Z,100438.22
2018-06-19T02:31:04.525Z,100433.40
2018-06-19T02:33:33.146Z,100437.07
2018-06-19T02:36:01.696Z,100442.00
2018-06-19T02:38:30.476Z,100440.30
2018-06-19T02:40:59.079Z,100442.55
2018-06-19T02:43:27.686Z,100452.34
2018-06-19T02:45:56.223Z,100451.39
2018-06-19T02:48:24.986Z,100451.66
2018-06-19T02:50:53.659Z,100447.54
2018-06-19T02:53:22.231Z,100456.98
2018-06-19T02:55:50.798Z,100458.13
2018-06-19T02:58:19.360Z,100460.13
2018-06-19T03:00:48.041Z,100464.41
2018-06-19T03:03:16.673Z,100460.80
2018-06-19T03:05:45.165Z,100462.94
2018-06-19T03:08:13.814Z,100473.95
2018-06-19T03:10:42.426Z,100473.40
2018-06-19T03:13:11.024Z,100477.37
2018-06-19T03:15:39.550Z,100478.16
2018-06-19T03:18:08.463Z,100476.31
2018-06-19T03:20:38.236Z,100470.16
2018-06-19T03:23:07.036Z,100476.31
2018-06-19T03:25:35.669Z,100471.48
2018-06-19T03:28:04.336Z,100472.84
2018-06-19T03:30:32.979Z,100478.19
2018-06-19T03:33:01.621Z,100476.94
2018-06-19T03:35:30.358Z,100474.32
2018-06-19T03:37:59.085Z,100480.95
2018-06-19T03:40:28.483Z,100476.98
2018-06-19T03:42:57.158Z,100477.86
2018-06-19T03:45:25.794Z,100481.84
2018-06-19T03:47:54.463Z,100478.27
2018-06-19T03:50:22.989Z,100479.52
2018-06-19T03:52:51.666Z,100483.57
2018-06-19T03:55:20.176Z,100477.78
2018-06-19T03:57:48.875Z,100482.09
2018-06-19T04:00:17.405Z,100489.58
2018-06-19T04:02:45.990Z,100493.94
2018-06-19T04:05:15.374Z,100497.80
2018-06-19T04:07:43.912Z,100506.95
2018-06-19T04:10:12.705Z,100500.79
2018-06-19T04:12:41.302Z,100512.22
2018-06-19T04:15:09.986Z,100503.70
2018-06-19T04:17:38.639Z,100510.63
2018-06-19T04:20:07.316Z,100511.92
2018-06-19T04:22:35.879Z,100513.22
2018-06-19T04:25:04.453Z,100524.28
2018-06-19T04:27:33.117Z,100515.76
2018-06-19T04:30:01.749Z,100514.84
2018-06-19T04:32:30.433Z,100515.72
2018-06-19T04:34:59.163Z,100515.31
2018-06-19T04:37:28.753Z,100517.49
2018-06-19T04:39:57.441Z,100519.74
2018-06-19T04:42:26.892Z,100525.53
2018-06-19T04:44:55.811Z,100522.39
2018-06-19T04:47:24.599Z,100523.28
2018-06-19T04:49:53.281Z,100525.53
2018-06-19T04:52:22.164Z,100526.89
2018-06-19T04:54:50.822Z,100523.42
2018-06-19T04:57:19.583Z,100527.81
2018-06-19T04:59:48.308Z,100525.16
2018-06-19T05:02:17.245Z,100529.95
2018-06-19T05:04:45.917Z,100534.45
2018-06-19T05:07:14.604Z,100532.09
2018-06-19T05:09:43.313Z,100522.44
2018-06-19T05:12:11.976Z,100528.92
2018-06-19T05:14:40.608Z,100528.33
2018-06-19T05:17:09.218Z,100523.39
2018-06-19T05:19:37.785Z,100523.16
2018-06-19T05:22:06.410Z,100526.19
2018-06-19T05:24:35.201Z,100522.61
2018-06-19T05:27:03.838Z,100522.16
2018-06-19T05:29:32.503Z,100521.76
2018-06-19T05:32:01.284Z,100533.23
2018-06-19T05:34:29.899Z,100529.66
2018-06-19T05:36:58.736Z,100529.20
2018-06-19T05:39:27.821Z,100532.27
2018-06-19T05:41:56.528Z,100533.96
2018-06-19T05:44:25.348Z,100533.41
2018-06-19T05:46:54.200Z,100537.27
2018-06-19T05:49:23.217Z,100545.13
2018-06-19T05:51:51.976Z,100542.55
2018-06-19T05:54:21.122Z,100546.94
2018-06-19T05:56:49.908Z,100551.73
2018-06-19T05:59:18.683Z,100552.58
2018-06-19T06:01:47.287Z,100560.06
2018-06-19T06:04:16.260Z,100563.56
2018-06-19T06:06:44.888Z,100556.88
2018-06-19T06:09:13.644Z,100555.16
2018-06-19T06:11:42.612Z,100550.17
2018-06-19T06:14:11.508Z,100550.09
2018-06-19T06:16:40.448Z,100552.11
2018-06-19T06:19:09.223Z,100556.83
2018-06-19T06:21:38.093Z,100550.35
2018-06-19T06:24:06.861Z,100557.68
2018-06-19T06:26:35.573Z,100561.34
2018-06-19T06:29:04.675Z,100567.75
2018-06-19T06:31:33.359Z,100482.62
2018-06-19T06:34:02.370Z,100568.07
2018-06-19T06:36:31.188Z,100570.61
2018-06-19T06:38:59.951Z,100579.80
2018-06-19T06:41:28.732Z,100571.89
2018-06-19T06:43:57.496Z,100577.05
2018-06-19T06:46:26.227Z,100578.22
2018-06-19T06:48:55.226Z,100577.29
2018-06-19T06:51:24.001Z,100581.16
2018-06-19T06:53:52.839Z,100582.09
2018-06-19T06:56:21.622Z,100589.94
2018-06-19T06:58:50.192Z,100589.21
2018-06-19T07:01:18.835Z,100587.30
2018-06-19T07:03:47.802Z,100588.46
2018-06-19T07:06:16.649Z,100585.63
2018-06-19T07:08:45.425Z,100593.01
2018-06-19T07:11:14.088Z,100598.41
2018-06-19T07:13:42.797Z,100594.51
2018-06-19T07:16:11.485Z,100594.98
2018-06-19T07:18:40.249Z,100602.04
2018-06-19T07:21:09.048Z,100595.39
2018-06-19T07:23:37.864Z,100597.24
2018-06-19T07:26:06.483Z,100603.02
2018-06-19T07:28:35.138Z,100596.44
2018-06-19T07:31:03.824Z,100601.69
2018-06-19T07:33:32.522Z,100610.55
2018-06-19T07:36:01.351Z,100607.00
2018-06-19T07:38:30.171Z,100614.98
2018-06-19T07:40:58.808Z,100615.79
2018-06-19T07:43:27.471Z,100613.48
2018-06-19T07:45:56.622Z,100619.61
2018-06-19T07:48:25.577Z,100624.04
2018-06-19T07:50:54.464Z,100615.17
2018-06-19T07:53:23.132Z,100620.85
2018-06-19T07:55:51.853Z,100617.55
2018-06-19T07:58:20.680Z,100618.48
2018-06-19T08:00:49.450Z,100620.84
2018-06-19T08:03:18.194Z,100620.41
2018-06-19T08:05:52.195Z,100621.56
2018-06-19T08:08:21.126Z,100628.48
2018-06-19T08:10:49.839Z,100626.98
2018-06-19T08:13:18.482Z,100622.54
2018-06-19T08:15:47.186Z,100626.36
2018-06-19T08:18:16.074Z,100629.83
2018-06-19T08:20:45.053Z,100632.09
2018-06-19T08:23:13.869Z,100636.53
2018-06-19T08:25:42.579Z,100640.47
2018-06-19T08:28:11.294Z,100635.55
2018-06-19T08:30:40.034Z,100643.41
2018-06-19T08:33:08.611Z,100637.98
2018-06-19T08:35:37.267Z,100640.39
2018-06-19T08:38:06.271Z,100645.52
2018-06-19T08:40:34.978Z,100642.41
2018-06-19T08:43:03.578Z,100645.92
2018-06-19T08:45:32.324Z,100645.80
2018-06-19T08:48:00.957Z,100643.78
2018-06-19T08:50:29.516Z,100648.09
2018-06-19T08:52:58.127Z,100647.91
2018-06-19T08:55:26.745Z,100649.28
2018-06-19T08:57:55.338Z,100645.73
2018-06-19T09:00:24.112Z,100650.21
2018-06-19T09:02:52.771Z,100657.83
2018-06-19T09:05:21.371Z,100656.66
2018-06-19T09:07:50.022Z,100654.83
2018-06-19T09:10:18.691Z,100661.11
2018-06-19T09:12:47.267Z,100658.44
2018-06-19T09:15:15.873Z,100661.11
2018-06-19T09:17:44.360Z,100656.50
2018-06-19T09:20:13.029Z,100664.84
2018-06-19T09:22:45.805Z,100663.09
2018-06-19T09:25:14.832Z,100659.09
2018-06-19T09:27:43.486Z,100658.67
2018-06-19T09:30:12.173Z,100665.20
2018-06-19T09:32:40.768Z,100664.08
2018-06-19T09:35:09.381Z,100662.95
2018-06-19T09:37:37.881Z,100667.17
2018-06-19T09:40:06.389Z,100662.97
2018-06-19T09:42:35.004Z,100662.02
2018-06-19T09:45:03.787Z,100668.39
2018-06-19T09:47:32.295Z,100665.72
2018-06-19T09:50:00.814Z,100664.78
2018-06-19T09:52:29.354Z,100665.23
2018-06-19T09:54:58.194Z,100670.42
2018-06-19T09:57:26.792Z,100668.69
2018-06-19T09:59:55.408Z,100670.42
2018-06-19T10:02:24.040Z,100667.70
2018-06-19T10:04:52.657Z,100667.09
2018-06-19T10:07:21.782Z,100670.53
2018-06-19T10:09:52.105Z,100669.53
2018-06-19T10:12:21.255Z,100662.77
2018-06-19T10:14:50.458Z,100663.10
2018-06-19T10:17:19.012Z,100666.69
2018-06-19T10:19:47.760Z,100669.33
2018-06-19T10:22:16.451Z,100667.57
2018-06-19T10:24:45.030Z,100670.20
2018-06-19T10:27:13.794Z,100670.50
2018-06-19T10:29:42.588Z,100669.66
2018-06-19T10:32:11.289Z,100673.83
2018-06-19T10:34:40.090Z,100678.05
2018-06-19T10:37:08.774Z,100672.59
2018-06-19T10:39:37.580Z,100676.69
2018-06-19T10:42:06.273Z,100675.13
2018-06-19T10:44:35.023Z,100674.00
2018-06-19T10:47:03.718Z,100673.44
2018-06-19T10:49:32.591Z,100683.93
2018-06-19T10:52:01.340Z,100682.34
2018-06-19T10:54:29.934Z,100680.53
2018-06-19T10:56:58.578Z,100675.98
2018-06-19T10:59:27.198Z,100678.11
2018-06-19T11:01:55.882Z,100685.34
2018-06-19T11:04:24.586Z,100684.86
2018-06-19T11:06:53.220Z,100686.42
2018-06-19T11:09:22.226Z,100697.02
2018-06-19T11:11:50.877Z,100691.80
2018-06-19T11:14:19.533Z,100695.83
2018-06-19T11:16:48.286Z,100694.00
2018-06-19T11:19:17.160Z,100703.00
2018-06-19T11:21:46.046Z,100697.63
2018-06-19T11:24:14.761Z,100698.42
2018-06-19T11:26:43.496Z,100694.08
2018-06-19T11:29:12.240Z,100696.76
2018-06-19T11:31:41.022Z,100698.39
2018-06-19T11:34:09.725Z,100692.07
2018-06-19T11:36:38.511Z,100690.73
2018-06-19T11:39:09.851Z,100692.47
2018-06-19T11:41:38.946Z,100696.02
2018-06-19T11:44:07.771Z,100695.98
2018-06-19T11:46:36.542Z,100700.39
2018-06-19T11:49:05.626Z,100692.74
2018-06-19T11:51:34.331Z,100689.31
2018-06-19T11:54:03.035Z,100690.47
2018-06-19T11:56:31.682Z,100693.66
2018-06-19T11:59:00.355Z,100694.42
2018-06-19T12:01:28.963Z,100690.34
2018-06-19T12:03:57.748Z,100693.02
2018-06-19T12:06:26.520Z,100691.48
2018-06-19T12:08:55.238Z,100690.40
2018-06-19T12:11:24.001Z,100691.11
2018-06-19T12:13:52.655Z,100689.59
2018-06-19T12:16:21.841Z,100690.01
2018-06-19T12:18:50.690Z,100690.22
2018-06-19T12:21:19.572Z,100693.41
2018-06-19T12:23:48.283Z,100686.12
2018-06-19T12:26:16.947Z,100686.66
2018-06-19T12:28:45.754Z,100680.73
2018-06-19T12:31:14.530Z,100685.83
2018-06-19T12:33:43.293Z,100683.50
2018-06-19T12:36:12.097Z,100684.13
2018-06-19T12:38:41.223Z,100687.34
2018-06-19T12:41:09.925Z,100681.63
2018-06-19T12:43:38.763Z,100685.66
2018-06-19T12:46:10.008Z,100683.57
2018-06-19T12:48:40.294Z,100677.16
2018-06-19T12:52:18.306Z,100680.06
2018-06-19T12:55:33.140Z,100675.58
2018-06-19T12:58:01.825Z,100681.34
2018-06-19T13:00:31.499Z,100685.75
2018-06-19T13:03:16.318Z,100690.08
2018-06-19T13:05:56.417Z,100686.72
2018-06-19T13:08:25.621Z,100694.75
2018-06-19T13:10:55.479Z,100697.27
2018-06-19T13:13:35.625Z,100699.75
2018-06-19T13:16:05.447Z,100697.47
2018-06-19T13:18:46.371Z,100694.48
2018-06-19T13:21:16.927Z,100695.34
2018-06-19T13:23:46.018Z,100694.59
2018-06-19T13:26:18.653Z,100704.63
2018-06-19T13:29:58.473Z,100697.42
2018-06-19T13:32:27.524Z,100699.41
2018-06-19T13:34:56.420Z,100695.00
2018-06-19T13:37:29.330Z,100685.41
2018-06-19T13:41:13.966Z,100693.17
2018-06-19T13:43:53.984Z,100693.31
2018-06-19T13:46:22.803Z,100692.66
2018-06-19T13:48:51.698Z,100688.64
2018-06-19T13:51:20.566Z,100691.55
2018-06-19T13:53:49.422Z,100692.37
2018-06-19T13:57:35.213Z,100689.95
2018-06-19T14:00:06.069Z,100694.10
2018-06-19T14:02:34.958Z,100692.48
2018-06-19T14:05:04.234Z,100692.37
2018-06-19T14:07:37.243Z,100697.36
2018-06-19T14:10:19.778Z,100698.52
2018-06-19T14:13:03.528Z,100689.47
2018-06-19T14:15:37.229Z,100691.85
2018-06-19T14:18:06.594Z,100689.28
2018-06-19T14:20:36.295Z,100686.67
2018-06-19T14:23:05.355Z,100688.91
2018-06-19T14:25:34.476Z,100686.12
2018-06-19T14:28:03.533Z,100690.37
2018-06-19T14:30:32.240Z,100686.92
2018-06-19T14:33:01.173Z,100681.91
2018-06-19T14:35:29.947Z,100684.23
2018-06-19T14:37:58.905Z,100689.73
2018-06-19T14:40:27.674Z,100677.94
2018-06-19T14:42:56.351Z,100682.08
2018-06-19T14:45:25.236Z,100683.56
2018-06-19T14:47:54.055Z,100678.66
2018-06-19T14:50:22.743Z,100681.05
2018-06-19T14:52:52.892Z,100676.08
2018-06-19T14:55:21.703Z,100675.31
2018-06-19T14:57:50.322Z,100681.61
2018-06-19T15:00:19.060Z,100680.72
2018-06-19T15:02:47.672Z,100673.41
2018-06-19T15:05:16.865Z,100675.13
2018-06-19T15:07:50.641Z,100668.48
2018-06-19T15:10:19.993Z,100677.01
2018-06-19T15:12:48.822Z,100674.76
2018-06-19T15:15:17.697Z,100678.67
2018-06-19T15:17:46.507Z,100678.38
2018-06-19T15:20:15.930Z,100673.08
2018-06-19T15:22:44.887Z,100673.20
2018-06-19T15:25:14.628Z,100671.05
2018-06-19T15:27:43.559Z,100667.41
2018-06-19T15:30:12.623Z,100671.36
2018-06-19T15:32:42.374Z,100670.78
2018-06-19T15:35:11.226Z,100676.50
2018-06-19T15:37:39.889Z,100671.48
2018-06-19T15:40:08.758Z,100663.89
2018-06-19T15:42:37.891Z,100669.78
2018-06-19T15:45:06.725Z,100667.18
2018-06-19T15:47:35.517Z,100665.84
2018-06-19T15:50:05.178Z,100667.30
2018-06-19T15:52:34.548Z,100668.22
2018-06-19T15:55:04.468Z,100665.54
2018-06-19T15:57:33.327Z,100662.42
2018-06-19T16:00:02.124Z,100667.52
2018-06-19T16:02:30.917Z,100672.31
2018-06-19T16:04:59.822Z,100668.29
2018-06-19T16:07:28.997Z,100667.52
2018-06-19T16:09:57.755Z,100665.53
2018-06-19T16:12:26.726Z,100662.34
2018-06-19T16:14:55.920Z,100663.00
2018-06-19T16:17:24.828Z,100663.50
2018-06-19T16:19:55.168Z,100654.48
2018-06-19T16:22:24.086Z,100656.59
2018-06-19T16:24:53.942Z,100654.88
2018-06-19T16:27:26.584Z,100652.84
2018-06-19T16:30:13.078Z,100649.66
2018-06-19T16:32:51.908Z,100653.87
2018-06-19T16:35:21.250Z,100658.72
2018-06-19T16:37:50.078Z,100657.26
2018-06-19T16:40:18.793Z,100664.03
2018-06-19T16:42:47.683Z,100662.46
2018-06-19T16:45:18.141Z,100666.21
2018-06-19T16:47:47.524Z,100657.78
2018-06-19T16:50:16.086Z,100655.30
2018-06-19T16:52:44.816Z,100657.33
2018-06-19T16:55:13.578Z,100659.82
2018-06-19T16:57:43.454Z,100654.45
2018-06-19T17:00:12.621Z,100658.48
2018-06-19T17:02:41.533Z,100661.47
2018-06-19T17:05:10.490Z,100657.83
2018-06-19T17:07:44.537Z,100655.91
2018-06-19T17:10:14.318Z,100658.03
2018-06-19T17:15:48.222Z,100643.96
2018-06-19T17:18:17.747Z,100653.08
2018-06-19T17:20:47.258Z,100650.94
2018-06-19T17:23:17.454Z,100644.03
2018-06-19T17:25:47.424Z,100644.30
2018-06-19T17:28:16.872Z,100645.52
2018-06-19T17:30:45.597Z,100648.86
2018-06-19T17:33:14.992Z,100649.69
2018-06-19T17:35:43.809Z,100646.74
2018-06-19T17:38:12.868Z,100648.27
2018-06-19T17:40:43.233Z,100642.78
2018-06-19T17:43:12.064Z,100643.61
2018-06-19T17:45:40.962Z,100646.17
2018-06-19T17:48:09.654Z,100646.45
2018-06-19T17:50:38.750Z,100648.40
2018-06-19T17:53:07.362Z,100644.32
2018-06-19T17:55:36.008Z,100650.50
2018-06-19T17:58:05.062Z,100642.54
2018-06-19T18:00:33.742Z,100643.73
2018-06-19T18:03:02.388Z,100642.16
2018-06-19T18:05:31.040Z,100645.39
2018-06-19T18:07:59.731Z,100642.02
2018-06-19T18:10:28.450Z,100646.73
2018-06-19T18:12:57.212Z,100648.56
2018-06-19T18:15:26.827Z,100645.67
2018-06-19T18:18:02.707Z,100647.15
2018-06-19T18:20:31.406Z,100646.83
2018-06-19T18:23:00.796Z,100643.48
2018-06-19T18:25:29.498Z,100643.62
2018-06-19T18:27:58.123Z,100638.50
2018-06-19T18:30:26.911Z,100634.66
2018-06-19T18:32:55.935Z,100635.22
2018-06-19T18:35:24.759Z,100636.17
2018-06-19T18:37:54.618Z,100639.38
2018-06-19T18:40:23.410Z,100640.42
2018-06-19T18:42:52.236Z,100639.61
2018-06-19T18:45:21.028Z,100646.86
2018-06-19T18:47:50.793Z,100641.29
2018-06-19T18:50:19.391Z,100641.81
2018-06-19T18:52:48.204Z,100644.06
2018-06-19T18:55:16.822Z,100642.11
2018-06-19T18:57:52.664Z,100640.52
2018-06-19T19:00:22.855Z,100642.03
2018-06-19T19:02:52.719Z,100646.11
2018-06-19T19:05:21.328Z,100640.08
2018-06-19T19:07:53.955Z,100636.13
2018-06-19T19:10:28.302Z,100636.30
2018-06-19T19:12:57.014Z,100635.97
2018-06-19T19:17:34.220Z,100633.92
2018-06-19T19:20:05.630Z,100643.12
2018-06-19T19:22:34.464Z,100639.66
2018-06-19T19:25:04.252Z,100637.51
2018-06-19T19:27:38.036Z,100634.67
2018-06-19T19:30:07.303Z,100634.38
2018-06-19T19:32:36.492Z,100638.52
2018-06-19T19:35:06.701Z,100642.69
2018-06-19T19:37:40.625Z,100638.74
2018-06-19T19:40:09.926Z,100637.95
2018-06-19T19:42:38.954Z,100636.78
2018-06-19T19:45:07.757Z,100640.01
2018-06-19T19:47:41.647Z,100642.35
2018-06-19T19:50:10.723Z,100645.58
2018-06-19T19:52:39.507Z,100646.00
2018-06-19T19:55:08.295Z,100647.95
2018-06-19T19:57:42.149Z,100650.63
2018-06-19T20:00:14.039Z,100652.02
2018-06-19T20:02:42.750Z,100651.17
2018-06-19T20:05:11.568Z,100653.91
2018-06-19T20:07:40.608Z,100656.58
2018-06-19T20:10:09.420Z,100663.36
2018-06-19T20:12:38.303Z,100658.08
2018-06-19T20:15:07.205Z,100664.36
2018-06-19T20:17:36.066Z,100667.48
2018-06-19T20:20:07.419Z,100661.75
2018-06-19T20:22:36.449Z,100667.48
2018-06-19T20:25:05.387Z,100668.38
2018-06-19T20:27:34.684Z,100669.38
2018-06-19T20:30:03.314Z,100666.31
2018-06-19T20:32:32.278Z,100670.87
2018-06-19T20:35:01.484Z,100667.80
2018-06-19T20:37:30.594Z,100669.66
2018-06-19T20:39:59.310Z,100667.53
2018-06-19T20:42:28.286Z,100669.88
2018-06-19T20:44:57.468Z,100670.81
2018-06-19T20:47:26.324Z,100674.03
2018-06-19T20:49:55.298Z,100675.03
2018-06-19T20:52:24.597Z,100676.52
2018-06-19T20:54:53.690Z,100681.87
2018-06-19T20:57:22.889Z,100680.59
2018-06-19T20:59:51.772Z,100682.96
2018-06-19T21:02:20.682Z,100677.19
2018-06-19T21:04:49.822Z,100673.34
2018-06-19T21:09:52.136Z,100677.50
2018-06-19T21:12:21.518Z,100681.11
2018-06-19T21:14:50.630Z,100677.61
2018-06-19T21:17:19.778Z,100679.05
2018-06-19T21:19:48.697Z,100683.05
2018-06-19T21:22:17.844Z,100675.19
2018-06-19T21:24:46.921Z,100676.98
2018-06-19T21:27:16.060Z,100675.25
2018-06-19T21:29:45.302Z,100671.78
2018-06-19T21:32:14.113Z,100677.58
2018-06-19T21:34:43.347Z,100670.96
2018-06-19T21:37:12.039Z,100672.39
2018-06-19T21:39:40.941Z,100676.05
2018-06-19T21:42:09.776Z,100672.99
2018-06-19T21:44:38.856Z,100667.71
2018-06-19T21:47:07.835Z,100675.27
2018-06-19T21:49:36.637Z,100670.47
2018-06-19T21:52:05.399Z,100664.85
2018-06-19T21:54:34.166Z,100663.55
2018-06-19T21:57:02.978Z,100663.23
2018-06-19T21:59:31.804Z,100663.75
2018-06-19T22:02:00.876Z,100661.23
2018-06-19T22:04:29.862Z,100658.22
2018-06-19T22:06:58.605Z,100657.83
2018-06-19T22:09:27.289Z,100655.70
2018-06-19T22:11:55.937Z,100653.09
2018-06-19T22:14:24.496Z,100657.09
2018-06-19T22:16:53.033Z,100654.42
2018-06-19T22:19:22.020Z,100662.03
2018-06-19T22:21:50.619Z,100656.69
2018-06-19T22:24:19.274Z,100661.64
2018-06-19T22:26:47.842Z,100663.45
2018-06-19T22:29:16.545Z,100653.23
2018-06-19T22:31:45.424Z,100653.29
2018-06-19T22:34:14.087Z,100657.78
2018-06-19T22:36:42.875Z,100658.32
2018-06-19T22:39:11.453Z,100656.11
2018-06-19T22:41:40.231Z,100653.92
2018-06-19T22:44:08.800Z,100653.49
2018-06-19T22:46:37.522Z,100654.43
2018-06-19T22:49:06.183Z,100655.86
2018-06-19T22:51:35.002Z,100663.38
2018-06-19T22:54:04.355Z,100664.26
2018-06-19T22:56:33.422Z,100661.19
2018-06-19T22:59:02.032Z,100664.31
2018-06-19T23:01:30.901Z,100663.03
2018-06-19T23:03:59.681Z,100655.12
2018-06-19T23:06:29.301Z,100659.52
2018-06-19T23:08:58.055Z,100656.45
2018-06-19T23:11:26.659Z,100656.45
2018-06-19T23:13:55.407Z,100654.72
2018-06-19T23:16:24.069Z,100653.84
2018-06-19T23:18:52.942Z,100648.56
2018-06-19T23:21:22.624Z,100651.72
2018-06-19T23:23:51.436Z,100654.04
2018-06-19T23:26:20.124Z,100644.30
2018-06-19T23:28:48.943Z,100656.77
2018-06-19T23:31:18.309Z,100655.91
2018-06-19T23:33:46.997Z,100651.12
2018-06-19T23:36:15.898Z,100645.30
2018-06-19T23:38:44.800Z,100648.45
2018-06-19T23:41:13.679Z,100651.52
2018-06-19T23:43:42.420Z,100645.78
2018-06-19T23:46:11.123Z,100647.97
2018-06-19T23:48:39.804Z,100642.23
2018-06-19T23:51:08.366Z,100641.89
2018-06-19T23:53:37.037Z,100635.31
2018-06-19T23:56:05.642Z,100644.25
2018-06-19T23:58:34.651Z,100640.30
